Rothschild, WI (54474)

8:51 AM CST on March 06, 2015 (GMT -0600)
Knopf's House | Change Station
CLOSE
Current Station
Personal Weather Station
Location: Weston, WI
Elevation: 1214 ft
Nearby Weather Stations

Elev 1214 ft 44.91 °N, 89.55 °W | Updated 13 minutes ago

Mostly Cloudy
Mostly Cloudy
8.4 °F
Feels Like -1 °F
N
5.3
Wind Variable Wind from SSW

Today
High -- | Low -- °F
--% Chance of Precip.
Yesterday
High -- | Low -- °F
Precip. -- in
6:27 AM 5:52 PM
Full, 99% visible
Pressure 30.23 in
Visibility 10.0 miles
Clouds Overcast 8500 ft
Windchill -1 °F
Dew Point 1 °F
Humidity 71%
Rainfall in
Snow Depth Not available.
UV 0 out of 12
Pollen .40 out of 12
Air Quality Not available.
Flu Activity Not available.
METAR KAUW 061354Z AUTO 17006KT 10SM OVC085 M17/M20 A3012 RMK AO2 SLP237 T11671200

More Conditions Fewer Conditions

Pressure 30.23 in
Visibility 10.0 miles
Clouds Overcast 8500 ft
Windchill -1 °F
Dew Point 1 °F
Humidity 71%
Rainfall in
Snow Depth Not available.
UV 0 out of 12
Pollen .40 out of 12
Air Quality Not available.
Flu Activity Not available.
METAR KAUW 061354Z AUTO 17006KT 10SM OVC085 M17/M20 A3012 RMK AO2 SLP237 T11671200

More Conditions Fewer Conditions

10-Day Weather Forecast

Almanac

Astronomy

Mar. 06, 2015 Rise Set
Actual Time
Civil Twilight
Nautical Twilight
Astronomical Twilight
Moon
Length of Visible Light
Length of Day
Tomorrow will be .
, % of the Moon is Illuminated

Today's Extremes

State Highs State Lows

Community

WunderPhotos

Upload Photos

1,803,285 photos uploaded!

WunderBlogs® & News

Nearby

Air Quality

  Air Quality AQ Index Pollutant
Not available.

Snow Depth

Station Depth Elevation

Earthquake Activity

City Distance Mag. Time & Date
Minimum magnitude displayed is 2.5.

Coastal Water Temperatures

Place Temperature

Nearby Weather Stations